Terminal Aerodrome Forecast
Issued by NWS

Home | Current Version | Previous Version | Text Only | Print | Product List | Glossary On
Versions: 1 2 3 4 5 6 7 8 9 10 11 12 13 14 15 16
000
FTUS41 KBTV 040138 AAA
TAFMSS
TAF AMD
KMSS 040138Z 0402/0424 12010KT 2SM -SN BR OVC015
      TEMPO 0402/0404 1/2SM SN FG VV008
     FM040600 25013G23KT P6SM VCSH OVC015
     FM041300 24015G27KT P6SM BKN035=

USA.gov is the U.S. government's official web portal to all federal, state and local government web resources and services.